Sand City, California
Current Conditions -  °F | °C
As of 12:54 PM on Tuesday 27 Jan 2015 (Local Time) from KMRY Reporting Station
Scattered Clouds Scattered Clouds  
Wind Chill: 63°   Ceiling: Unl
Heat Index: 63°   Visibility: 10mi
Dew Point: 44°   Wind: 0mph
Humidity: 50%   Direction: NA
Pressure: 30.2"   Gusts: NA
Location:  36.6221°N, 121.821°W
Report Text: KMRY 272054Z 00000KT 10SM SCT100 17/07 A3020 RMK AO2 SLP238 T01720067 58000
Loading
Personal Weather Stations






























Interactive Weather Map New forecast layout! Learn more

10-Day Weather Forecast

Advertisements
Track Severe Weather on mobile